Time;durP1;ratioP1;P1;durP2;ratioP2;P2;SDS_P1;SDS_P2;PMS_P1;PMS_P2;Temp;Humidity;BMP_temperature;BMP_pressure;BME280_temperature;BME280_humidity;BME280_pressure;Samples;Min_cycle;Max_cycle;Signal;HPM_P1;HPM_P2
2021/10/23 00:01:41;;;;;;;3.53;1.00;;;;;;;10.30;46.07;99894.91;5101773;23;20232;-79
2021/10/23 00:04:29;;;;;;;2.30;0.90;;;;;;;10.38;45.85;99909.91;5104621;22;20224;-80
2021/10/23 00:07:09;;;;;;;2.60;1.00;;;;;;;10.26;46.33;99914.28;5104873;23;20219;-80
2021/10/23 00:10:21;;;;;;;3.20;0.83;;;;;;;10.30;46.32;99931.59;5096037;23;20235;-80
2021/10/23 00:13:29;;;;;;;4.40;1.00;;;;;;;10.30;46.32;99929.72;5164054;23;20223;-80
2021/10/23 00:16:32;;;;;;;2.40;1.07;;;;;;;10.32;46.54;99924.16;5083105;22;20839;-79
2021/10/23 00:19:39;;;;;;;3.03;1.00;;;;;;;10.21;46.58;99932.84;5126491;22;20219;-79
2021/10/23 00:22:06;;;;;;;4.57;1.30;;;;;;;10.17;46.76;99928.94;5070374;23;20309;-79
2021/10/23 00:24:53;;;;;;;2.23;1.00;;;;;;;10.14;46.63;99925.59;5103125;23;20204;-80
2021/10/23 00:27:19;;;;;;;4.67;1.23;;;;;;;10.13;46.66;99923.97;5109048;22;20215;-80
2021/10/23 00:30:24;;;;;;;2.97;0.90;;;;;;;10.15;46.65;99924.63;5122329;22;20202;-79
2021/10/23 00:32:54;;;;;;;3.83;1.17;;;;;;;10.10;46.70;99919.03;5128637;22;20214;-79
2021/10/23 00:35:31;;;;;;;4.07;1.13;;;;;;;10.16;46.74;99941.50;5136369;22;20201;-79
2021/10/23 00:38:09;;;;;;;3.67;1.00;;;;;;;10.21;46.57;99940.88;5116726;22;20234;-79
2021/10/23 00:40:55;;;;;;;1.67;0.90;;;;;;;10.17;46.79;99936.97;5124219;22;20241;-79
2021/10/23 00:43:26;;;;;;;2.87;1.03;;;;;;;10.14;46.68;99938.16;5140946;22;20279;-79
2021/10/23 00:46:03;;;;;;;3.27;1.10;;;;;;;10.07;47.15;99937.38;5099183;23;20258;-80
2021/10/23 00:49:07;;;;;;;4.87;1.10;;;;;;;10.09;47.31;99938.78;5106827;22;20208;-79
2021/10/23 00:51:37;;;;;;;4.10;1.40;;;;;;;10.09;47.35;99943.31;5125619;22;20238;-79
2021/10/23 00:54:27;;;;;;;3.93;0.90;;;;;;;10.11;47.19;99952.00;5125269;22;20253;-79
2021/10/23 00:57:39;;;;;;;2.77;1.00;;;;;;;10.15;47.31;99948.72;5036935;28;20225;-80
2021/10/23 01:00:31;;;;;;;1.63;0.80;;;;;;;10.17;47.75;99961.91;5039406;28;20194;-80
2021/10/23 01:03:05;;;;;;;4.10;1.10;;;;;;;9.99;47.80;99929.53;5039510;28;20220;-80
2021/10/23 01:05:35;;;;;;;6.80;1.37;;;;;;;10.07;47.35;99937.38;5039569;28;20217;-80
2021/10/23 01:08:03;;;;;;;1.73;0.87;;;;;;;9.98;47.86;99950.16;5039052;28;20175;-79
2021/10/23 01:10:45;;;;;;;3.73;1.10;;;;;;;10.07;47.44;99932.03;5079706;22;20295;-80
2021/10/23 01:13:34;;;;;;;2.30;0.90;;;;;;;9.96;47.66;99925.44;5117339;23;20207;-79
2021/10/23 01:16:26;;;;;;;3.87;1.10;;;;;;;10.01;47.85;99933.66;5139863;22;20223;-79
2021/10/23 01:18:57;;;;;;;4.43;1.10;;;;;;;10.00;47.83;99937.38;5125078;22;20207;-79
2021/10/23 01:21:56;;;;;;;2.47;1.00;;;;;;;9.97;48.17;99936.97;5117971;22;20213;-80
2021/10/23 01:24:26;;;;;;;3.20;1.50;;;;;;;9.82;48.42;99914.97;5105350;23;20233;-80
2021/10/23 01:27:07;;;;;;;4.37;1.27;;;;;;;9.82;48.62;99928.34;5115323;22;20250;-80
2021/10/23 01:30:10;;;;;;;2.87;0.90;;;;;;;9.87;48.69;99928.53;5082153;23;20222;-80
2021/10/23 01:33:07;;;;;;;4.30;0.90;;;;;;;9.83;48.74;99938.03;5066645;23;20232;-79
2021/10/23 01:35:50;;;;;;;1.97;0.93;;;;;;;9.81;48.53;99935.53;5138037;22;20234;-79
2021/10/23 01:38:35;;;;;;;2.90;1.00;;;;;;;9.79;48.43;99939.47;5123320;22;20215;-79
2021/10/23 01:41:36;;;;;;;3.30;0.83;;;;;;;9.79;48.52;99940.28;5119118;28;20229;-79
2021/10/23 01:44:40;;;;;;;3.60;1.00;;;;;;;9.68;49.07;99946.25;5141061;22;20225;-80
2021/10/23 01:47:22;;;;;;;1.60;0.83;;;;;;;9.79;48.30;99932.25;5108656;23;20200;-79
2021/10/23 01:50:44;;;;;;;3.17;1.10;;;;;;;9.84;48.06;99934.31;5111703;22;20232;-79
2021/10/23 01:53:31;;;;;;;3.63;0.87;;;;;;;9.78;48.45;99932.47;5074323;22;20451;-80
2021/10/23 01:56:18;;;;;;;2.37;0.80;;;;;;;9.80;48.35;99933.09;5117572;28;20184;-80
2021/10/23 01:58:49;;;;;;;3.03;1.00;;;;;;;9.86;48.13;99943.78;5123657;22;20212;-80
2021/10/23 02:01:31;;;;;;;3.00;0.90;;;;;;;9.75;48.20;99930.22;5102691;28;20208;-80
2021/10/23 02:04:18;;;;;;;3.30;0.90;;;;;;;9.81;48.49;99946.25;5118170;28;20190;-79
2021/10/23 02:07:42;;;;;;;1.43;0.93;;;;;;;9.86;48.39;99945.63;5115417;22;20228;-79
2021/10/23 02:10:11;;;;;;;2.17;0.83;;;;;;;9.87;48.64;99949.94;5205259;22;20262;-79
2021/10/23 02:13:01;;;;;;;2.60;1.00;;;;;;;9.70;48.45;99936.97;5098770;22;20211;-79
2021/10/23 02:15:29;;;;;;;2.93;1.20;;;;;;;9.80;48.91;99954.50;5091114;23;20263;-79
2021/10/23 02:18:16;;;;;;;3.87;0.90;;;;;;;9.70;48.91;99945.00;5113258;22;20212;-79
2021/10/23 02:20:43;;;;;;;2.53;1.00;;;;;;;9.79;48.97;99955.53;5116749;22;20219;-79
2021/10/23 02:23:15;;;;;;;1.97;1.00;;;;;;;9.71;49.47;99975.25;5100254;23;20212;-80
2021/10/23 02:26:18;;;;;;;4.50;1.20;;;;;;;9.79;49.21;99971.56;5078698;23;20221;-79
2021/10/23 02:28:50;;;;;;;3.07;0.97;;;;;;;9.71;49.65;99968.06;5135712;22;20232;-79
2021/10/23 02:31:30;;;;;;;2.57;1.00;;;;;;;9.68;49.65;99973.84;5110084;23;20226;-79
2021/10/23 02:34:11;;;;;;;4.00;1.20;;;;;;;9.65;50.05;99976.09;5184185;22;20234;-79
2021/10/23 02:36:42;;;;;;;2.57;0.97;;;;;;;9.59;49.68;99963.53;5118025;28;20222;-79
2021/10/23 02:39:23;;;;;;;4.40;1.03;;;;;;;9.71;49.55;99973.41;5119318;22;20203;-79
2021/10/23 02:42:05;;;;;;;3.70;1.00;;;;;;;9.72;49.55;99982.25;5124236;22;20220;-79
2021/10/23 02:45:10;;;;;;;2.90;1.13;;;;;;;9.56;50.19;99994.22;5101226;23;20302;-79
2021/10/23 02:47:48;;;;;;;3.60;1.10;;;;;;;9.55;49.91;99989.06;5108695;23;20214;-79
2021/10/23 02:50:29;;;;;;;3.10;1.00;;;;;;;9.53;49.84;99973.19;5117682;23;20299;-79
2021/10/23 02:53:38;;;;;;;3.73;1.00;;;;;;;9.58;49.75;99973.41;5197020;22;20215;-79
2021/10/23 02:56:19;;;;;;;4.23;0.93;;;;;;;9.57;50.01;99985.13;5081835;22;20210;-79
2021/10/23 02:59:01;;;;;;;2.43;0.97;;;;;;;9.64;50.37;99985.16;5078221;22;1150435;-79
2021/10/23 03:01:56;;;;;;;2.33;0.93;;;;;;;9.58;50.37;99988.63;5140804;22;20219;31
2021/10/23 03:04:44;;;;;;;3.20;1.10;;;;;;;9.63;50.16;99978.16;5071354;23;20211;-79
2021/10/23 03:07:15;;;;;;;2.00;1.30;;;;;;;9.70;50.03;99981.66;5171856;22;20192;-79
2021/10/23 03:09:49;;;;;;;1.97;1.10;;;;;;;9.56;49.92;99967.47;5130084;22;20203;-80
2021/10/23 03:12:29;;;;;;;3.50;0.93;;;;;;;9.52;50.50;99973.41;5117550;22;20234;-79
2021/10/23 03:14:57;;;;;;;1.83;0.90;;;;;;;9.52;50.40;99982.25;5086730;23;20225;-79
2021/10/23 03:17:43;;;;;;;3.87;1.27;;;;;;;9.58;50.19;99992.13;5091725;23;20204;-78
2021/10/23 03:20:36;;;;;;;3.00;1.40;;;;;;;9.71;50.18;99985.97;5051217;23;20240;-79
2021/10/23 03:23:23;;;;;;;6.17;1.00;;;;;;;9.70;50.18;99993.16;5114183;22;20218;-79
2021/10/23 03:25:53;;;;;;;2.60;1.10;;;;;;;9.60;50.36;99990.09;5111489;22;20214;-79
2021/10/23 03:28:19;;;;;;;1.73;0.77;;;;;;;9.56;51.18;100006.75;5105729;23;20279;-79
2021/10/23 03:31:02;;;;;;;2.43;1.10;;;;;;;9.52;50.75;100026.88;5114883;22;21306;-79
2021/10/23 03:33:34;;;;;;;2.73;1.20;;;;;;;9.66;50.69;100041.94;5254098;23;20237;-80
2021/10/23 03:36:13;;;;;;;4.10;1.30;;;;;;;9.51;50.87;100026.09;5102987;23;20218;-79
2021/10/23 03:39:06;;;;;;;2.47;1.17;;;;;;;9.47;51.78;100038.19;5125783;22;20209;-79
2021/10/23 03:42:15;;;;;;;2.90;1.07;;;;;;;9.37;51.67;100044.97;5143192;22;20257;-81
2021/10/23 03:44:42;;;;;;;4.03;1.23;;;;;;;9.31;52.10;100040.44;5135038;22;20222;-79
2021/10/23 03:47:23;;;;;;;2.63;1.10;;;;;;;9.29;52.12;100046.78;5073855;23;20211;-78
2021/10/23 03:49:57;;;;;;;3.87;1.20;;;;;;;9.20;52.92;100047.16;5083667;23;20220;-79
2021/10/23 03:52:38;;;;;;;3.27;1.10;;;;;;;9.16;52.78;100049.44;5038838;28;20227;-79
2021/10/23 03:55:10;;;;;;;2.77;1.20;;;;;;;9.01;52.87;100058.59;5082213;23;20213;-79
2021/10/23 03:57:43;;;;;;;2.80;1.10;;;;;;;8.89;53.25;100045.00;5097764;23;20296;-79
2021/10/23 04:00:31;;;;;;;3.00;1.10;;;;;;;8.73;53.93;100064.84;5081538;23;20225;-79
2021/10/23 04:03:13;;;;;;;3.40;1.03;;;;;;;8.81;54.03;100071.91;5052528;23;20219;-80
2021/10/23 04:06:00;;;;;;;2.50;1.00;;;;;;;8.86;54.49;100090.84;5047927;28;20220;-79
2021/10/23 04:08:29;;;;;;;2.57;1.17;;;;;;;8.86;54.81;100087.34;5084267;23;20250;-79
2021/10/23 04:11:26;;;;;;;4.70;1.30;;;;;;;8.82;55.34;100085.03;5139764;28;20219;-79
2021/10/23 04:14:13;;;;;;;4.00;1.17;;;;;;;8.91;55.25;100093.75;5123170;22;20702;-79
2021/10/23 04:16:40;;;;;;;1.50;1.10;;;;;;;8.94;55.24;100090.66;5112873;22;20202;-79
2021/10/23 04:20:00;;;;;;;2.97;1.17;;;;;;;9.09;55.32;100106.56;5120164;22;20232;-79
2021/10/23 04:22:58;;;;;;;3.47;1.20;;;;;;;9.19;54.93;100101.69;5050571;23;20211;-79
2021/10/23 04:25:47;;;;;;;4.47;1.60;;;;;;;9.28;54.66;100106.63;5099164;23;20229;-79
2021/10/23 04:28:15;;;;;;;3.50;1.10;;;;;;;9.27;54.68;100101.50;5138537;22;20673;-79
2021/10/23 04:30:41;;;;;;;3.80;1.40;;;;;;;9.28;54.05;100105.84;5119078;28;20304;-79
2021/10/23 04:33:43;;;;;;;3.23;1.20;;;;;;;9.41;53.83;100108.56;5123102;22;20237;-79
2021/10/23 04:36:11;;;;;;;2.03;1.07;;;;;;;9.40;54.25;100103.41;5120427;22;20235;-79
2021/10/23 04:38:42;;;;;;;3.67;1.40;;;;;;;9.41;54.17;100113.91;5091398;23;20203;-79
2021/10/23 04:41:18;;;;;;;3.77;1.20;;;;;;;9.47;53.79;100115.75;5117699;22;20233;-79
2021/10/23 04:43:58;;;;;;;4.60;1.40;;;;;;;9.57;53.39;100108.19;5104864;22;20241;-79
2021/10/23 04:46:30;;;;;;;3.60;1.30;;;;;;;9.47;53.89;100101.59;5105170;22;20289;-79
2021/10/23 04:49:22;;;;;;;3.97;1.50;;;;;;;9.58;53.73;100117.88;5083918;28;20225;-79
2021/10/23 04:51:55;;;;;;;3.07;1.10;;;;;;;9.51;53.91;100111.69;5122232;22;20231;-78
2021/10/23 04:54:41;;;;;;;3.50;1.20;;;;;;;9.57;53.67;100110.84;5110470;23;20210;-81
2021/10/23 04:57:09;;;;;;;3.73;1.20;;;;;;;9.62;53.81;100116.44;5078445;23;20255;-79
2021/10/23 05:00:32;;;;;;;2.93;1.30;;;;;;;9.71;53.33;100120.56;5099018;23;20217;-78
2021/10/23 05:03:27;;;;;;;3.77;1.23;;;;;;;9.81;53.11;100119.34;5115009;22;20234;-79
2021/10/23 05:06:41;;;;;;;3.33;1.10;;;;;;;9.71;53.38;100125.09;5098154;22;20304;31
2021/10/23 05:09:08;;;;;;;2.53;1.23;;;;;;;9.76;52.97;100121.81;5052247;23;20219;-79
2021/10/23 05:12:15;;;;;;;2.70;1.30;;;;;;;9.81;53.01;100130.06;5089946;23;20204;-80
2021/10/23 05:15:06;;;;;;;4.60;1.57;;;;;;;9.70;53.78;100132.28;5212557;22;20229;-79
2021/10/23 05:17:54;;;;;;;3.50;1.40;;;;;;;9.71;53.40;100123.25;5080020;23;20199;-79
2021/10/23 05:20:42;;;;;;;3.60;1.20;;;;;;;9.80;53.53;100139.13;5094262;23;20227;-80
2021/10/23 05:23:53;;;;;;;3.17;1.10;;;;;;;9.85;53.39;100145.50;5128779;22;20218;-79
2021/10/23 05:26:53;;;;;;;3.80;1.30;;;;;;;9.72;53.99;100148.97;5137549;22;20224;-79
2021/10/23 05:29:20;;;;;;;3.50;1.40;;;;;;;9.88;53.22;100134.41;5072678;23;20229;-79
2021/10/23 05:32:09;;;;;;;2.33;1.10;;;;;;;9.76;53.65;100130.66;5079083;22;20215;-79
2021/10/23 05:34:38;;;;;;;3.20;1.27;;;;;;;9.89;53.79;100152.09;5087990;23;20284;-79
2021/10/23 05:37:05;;;;;;;4.30;1.30;;;;;;;9.99;53.28;100151.72;5239157;22;20226;-80
2021/10/23 05:39:49;;;;;;;4.60;1.40;;;;;;;9.75;53.64;100129.03;5098441;22;20204;-79
2021/10/23 05:42:38;;;;;;;4.63;1.43;;;;;;;9.91;53.96;100150.06;5093008;23;20236;-79
2021/10/23 05:45:24;;;;;;;3.53;1.20;;;;;;;9.98;53.65;100153.59;5130391;22;20223;-79
2021/10/23 05:48:26;;;;;;;3.50;1.40;;;;;;;10.01;53.86;100163.06;5058827;22;20210;-79
2021/10/23 05:51:01;;;;;;;2.43;1.40;;;;;;;10.07;53.46;100172.97;5108206;23;20224;-80
2021/10/23 05:53:49;;;;;;;2.70;1.20;;;;;;;10.12;53.67;100171.31;5116693;23;20237;-79
2021/10/23 05:56:25;;;;;;;6.93;1.77;;;;;;;10.24;53.50;100174.25;5103781;23;20230;-79
2021/10/23 05:59:54;;;;;;;4.20;1.30;;;;;;;10.12;54.34;100173.19;5127449;22;20211;-79
2021/10/23 06:02:30;;;;;;;3.50;1.27;;;;;;;10.07;53.86;100163.09;5205546;22;20288;-79
2021/10/23 06:05:09;;;;;;;3.70;1.40;;;;;;;10.18;53.68;100182.25;5130671;22;20242;-79
2021/10/23 06:07:50;;;;;;;3.90;1.33;;;;;;;10.24;53.92;100184.13;5184155;22;20227;-79
2021/10/23 06:10:31;;;;;;;4.77;1.30;;;;;;;10.29;53.72;100182.50;5090394;22;20319;-80
2021/10/23 06:12:58;;;;;;;8.20;1.60;;;;;;;10.30;53.53;100189.50;5089089;23;20241;-79
2021/10/23 06:15:44;;;;;;;4.57;1.90;;;;;;;10.32;53.88;100179.41;5123041;22;20749;-79
2021/10/23 06:18:48;;;;;;;6.90;1.50;;;;;;;10.49;53.38;100203.97;5117467;23;20208;-79
2021/10/23 06:21:20;;;;;;;3.93;1.30;;;;;;;10.46;53.25;100196.31;5135912;22;20219;-79
2021/10/23 06:24:08;;;;;;;4.70;1.30;;;;;;;10.45;53.61;100210.75;5090918;23;20221;-79
2021/10/23 06:26:36;;;;;;;5.17;1.40;;;;;;;10.54;53.27;100188.88;5073556;23;20229;-79
2021/10/23 06:29:05;;;;;;;2.90;1.33;;;;;;;10.65;53.08;100216.94;5070663;22;20240;-79
2021/10/23 06:31:35;;;;;;;3.00;1.30;;;;;;;10.68;52.75;100221.06;5065055;28;20182;-80
2021/10/23 06:34:41;;;;;;;2.97;1.30;;;;;;;10.69;52.92;100223.53;5085587;28;20219;-79
2021/10/23 06:37:27;;;;;;;2.70;1.50;;;;;;;10.84;52.87;100236.72;5104364;23;20228;-79
2021/10/23 06:39:58;;;;;;;3.40;1.50;;;;;;;10.93;52.53;100233.63;5170562;23;20224;-79
2021/10/23 06:42:30;;;;;;;4.43;1.60;;;;;;;10.92;52.35;100237.34;5112628;23;20223;-79
2021/10/23 06:45:09;;;;;;;5.50;1.60;;;;;;;10.99;52.51;100250.75;5130501;22;20233;-79
2021/10/23 06:47:37;;;;;;;4.63;1.60;;;;;;;11.06;51.85;100261.47;5131909;22;20216;-81
2021/10/23 06:50:28;;;;;;;4.27;1.60;;;;;;;11.13;52.10;100259.59;5130847;22;20231;-79
2021/10/23 06:53:29;;;;;;;3.90;1.40;;;;;;;11.16;52.35;100262.69;5146127;22;20234;-79
2021/10/23 06:56:06;;;;;;;2.90;1.47;;;;;;;11.09;52.37;100277.97;5109000;23;20228;-79
2021/10/23 06:58:33;;;;;;;3.70;1.83;;;;;;;11.12;52.28;100274.03;5099946;28;20214;-79
2021/10/23 07:01:39;;;;;;;3.10;1.73;;;;;;;11.17;52.47;100293.03;5117741;28;20176;-78
2021/10/23 07:04:26;;;;;;;2.90;1.40;;;;;;;11.17;52.90;100293.03;5118106;28;20215;-79
2021/10/23 07:07:10;;;;;;;4.73;1.73;;;;;;;11.15;53.39;100285.19;5100749;28;20190;-79
2021/10/23 07:09:42;;;;;;;4.23;1.20;;;;;;;11.41;52.98;100298.56;5117774;28;20208;-79
2021/10/23 07:12:12;;;;;;;2.37;1.43;;;;;;;11.42;53.50;100297.56;5130442;22;20283;-79
2021/10/23 07:15:08;;;;;;;5.77;2.23;;;;;;;11.34;53.50;100310.34;5127757;22;20232;-79
2021/10/23 07:17:39;;;;;;;3.93;1.50;;;;;;;11.47;52.58;100289.69;5130131;22;20200;-80
2021/10/23 07:20:24;;;;;;;2.93;1.60;;;;;;;11.71;52.41;100331.13;5090792;23;20243;-79
2021/10/23 07:23:10;;;;;;;2.40;1.50;;;;;;;11.62;52.00;100323.53;5089319;23;20221;-79
2021/10/23 07:25:48;;;;;;;3.03;1.60;;;;;;;11.71;52.10;100319.59;5132853;22;20242;31
2021/10/23 07:28:49;;;;;;;3.23;1.60;;;;;;;11.69;52.03;100327.00;5078254;22;20212;-79
2021/10/23 07:31:42;;;;;;;2.97;1.70;;;;;;;11.69;52.09;100321.66;5128538;22;20219;-79
2021/10/23 07:34:17;;;;;;;3.17;1.73;;;;;;;11.54;52.33;100340.66;5090730;22;20240;-79
2021/10/23 07:37:10;;;;;;;2.93;1.50;;;;;;;11.60;52.65;100330.94;5120300;22;20627;-79
2021/10/23 07:40:00;;;;;;;4.03;1.63;;;;;;;11.76;52.26;100343.94;5123092;22;20211;-79
2021/10/23 07:43:18;;;;;;;3.17;1.40;;;;;;;11.82;51.83;100341.25;5129217;22;20242;-79
2021/10/23 07:46:29;;;;;;;3.30;1.60;;;;;;;11.98;50.95;100348.03;5124106;22;20216;-79
2021/10/23 07:49:00;;;;;;;3.47;1.63;;;;;;;12.07;51.07;100367.44;5122926;22;20224;-79
2021/10/23 07:51:27;;;;;;;4.17;1.47;;;;;;;11.87;51.63;100362.09;5104722;23;20219;-79
2021/10/23 07:54:19;;;;;;;1.90;1.33;;;;;;;11.87;51.49;100359.41;5128543;22;20232;-79
2021/10/23 07:56:55;;;;;;;3.07;1.63;;;;;;;12.11;50.80;100365.97;5124161;22;20208;-78
2021/10/23 07:59:28;;;;;;;5.33;1.70;;;;;;;12.16;50.98;100367.00;5121767;22;20196;-79
2021/10/23 08:02:03;;;;;;;4.20;1.70;;;;;;;12.20;50.58;100365.53;5088576;22;20251;-79
2021/10/23 08:04:31;;;;;;;5.10;1.90;;;;;;;12.25;50.92;100375.63;5095272;23;20211;-79
2021/10/23 08:07:01;;;;;;;2.43;1.80;;;;;;;12.27;50.49;100368.19;5105718;22;20174;-79
2021/10/23 08:09:44;;;;;;;2.77;1.30;;;;;;;12.64;50.08;100390.78;5128416;22;20249;-79
2021/10/23 08:12:26;;;;;;;1.90;1.60;;;;;;;12.52;50.07;100379.03;5111830;23;20224;-79
2021/10/23 08:14:52;;;;;;;4.67;1.77;;;;;;;12.71;50.15;100372.72;5191108;23;20287;-80
2021/10/23 08:17:59;;;;;;;3.87;1.60;;;;;;;13.08;49.13;100384.50;5127432;22;20225;-78
2021/10/23 08:20:43;;;;;;;2.80;1.40;;;;;;;13.24;48.40;100373.25;5111063;22;20331;31
2021/10/23 08:23:13;;;;;;;2.80;1.53;;;;;;;13.65;48.17;100361.91;5059081;23;20258;-79
2021/10/23 08:25:40;;;;;;;3.13;1.60;;;;;;;13.84;47.23;100381.63;5105614;23;20201;-79
2021/10/23 08:28:09;;;;;;;3.93;1.57;;;;;;;13.69;47.66;100387.34;5112385;22;20271;-80
2021/10/23 08:30:41;;;;;;;4.23;1.40;;;;;;;13.38;47.94;100384.72;5109390;22;20220;-78
2021/10/23 08:33:08;;;;;;;2.60;1.47;;;;;;;13.19;48.87;100378.47;5097045;22;20235;-79
2021/10/23 08:35:48;;;;;;;2.67;1.40;;;;;;;12.98;48.63;100386.84;5089405;23;20201;-79
2021/10/23 08:38:30;;;;;;;2.93;1.87;;;;;;;12.71;49.11;100384.31;5095757;23;20210;-79
2021/10/23 08:41:51;;;;;;;2.67;1.50;;;;;;;12.59;50.01;100398.66;5126994;23;20223;-79
2021/10/23 08:45:21;;;;;;;2.57;1.40;;;;;;;12.33;50.89;100397.72;5223526;22;20300;31
2021/10/23 08:48:25;;;;;;;2.77;1.67;;;;;;;12.39;50.85;100396.03;5098528;22;21422;-79
2021/10/23 08:50:55;;;;;;;2.23;1.50;;;;;;;12.58;50.06;100395.13;5109496;22;20200;-79
2021/10/23 08:53:43;;;;;;;2.97;1.60;;;;;;;12.45;50.11;100402.44;5133869;22;20231;31
2021/10/23 08:56:19;;;;;;;2.60;1.70;;;;;;;12.68;50.02;100410.81;5017370;23;20233;-80
2021/10/23 08:59:00;;;;;;;4.53;1.70;;;;;;;12.84;49.78;100399.53;5151314;22;20208;-80
2021/10/23 09:02:10;;;;;;;2.87;1.67;;;;;;;12.70;49.63;100397.97;5095632;23;20657;-79
2021/10/23 09:05:15;;;;;;;4.93;1.80;;;;;;;12.75;49.13;100401.66;5117005;22;20216;-80
2021/10/23 09:07:48;;;;;;;2.57;1.57;;;;;;;12.90;49.22;100403.22;5069202;23;20289;-79
2021/10/23 09:10:31;;;;;;;4.07;1.50;;;;;;;12.89;49.76;100393.50;5079004;28;20200;-81
2021/10/23 09:13:41;;;;;;;2.70;1.57;;;;;;;12.90;50.28;100408.63;5078295;28;20265;-80
2021/10/23 09:16:19;;;;;;;2.53;1.53;;;;;;;12.66;50.37;100405.63;5065327;23;20221;-80
2021/10/23 09:19:31;;;;;;;3.07;1.67;;;;;;;12.37;49.79;100403.47;5061481;28;20219;-80
2021/10/23 09:22:58;;;;;;;2.23;1.60;;;;;;;12.37;50.16;100403.47;5084967;23;20238;-80
2021/10/23 09:25:51;;;;;;;2.87;1.50;;;;;;;12.18;50.49;100372.97;5120880;22;20234;-80
2021/10/23 09:28:51;;;;;;;2.47;1.80;;;;;;;12.45;50.57;100400.56;5084435;23;20236;-80
2021/10/23 09:31:47;;;;;;;1.80;1.60;;;;;;;12.38;50.92;100412.38;5065799;23;20232;-80
2021/10/23 09:34:47;;;;;;;3.20;1.80;;;;;;;12.25;50.31;100421.31;5077298;28;20220;-80
2021/10/23 09:37:16;;;;;;;2.40;1.50;;;;;;;12.27;50.21;100411.97;5072841;23;20213;-80
2021/10/23 09:39:47;;;;;;;3.67;1.63;;;;;;;12.06;51.26;100419.50;5071141;23;20298;-80
2021/10/23 09:42:40;;;;;;;2.60;1.77;;;;;;;11.96;50.61;100409.19;5021271;28;20236;-80
2021/10/23 09:45:08;;;;;;;3.23;1.50;;;;;;;11.86;50.90;100416.84;5078286;23;20604;-80
2021/10/23 09:48:37;;;;;;;3.20;1.60;;;;;;;11.69;51.46;100408.38;5117031;28;20179;-81
2021/10/23 09:55:13;;;;;;;3.47;1.57;;;;;;;12.04;50.60;100426.94;5047796;22;20225;-80
2021/10/23 09:58:18;;;;;;;3.20;1.60;;;;;;;12.09;50.48;100421.75;5123177;22;20303;-80
2021/10/23 10:00:52;;;;;;;2.87;1.57;;;;;;;12.05;50.93;100423.22;5114966;22;20250;-79
2021/10/23 10:03:31;;;;;;;3.53;1.60;;;;;;;12.16;50.30;100426.09;5115366;22;20348;-79
2021/10/23 10:06:00;;;;;;;3.40;1.60;;;;;;;12.26;50.03;100431.84;5087405;22;20264;-80
2021/10/23 10:08:31;;;;;;;4.63;1.80;;;;;;;12.33;49.55;100410.31;5056649;28;20214;-79
2021/10/23 10:11:26;;;;;;;1.87;1.33;;;;;;;12.55;49.29;100424.31;5076974;28;20189;-80
2021/10/23 10:13:56;;;;;;;3.23;1.70;;;;;;;12.61;49.56;100405.44;5078183;28;20200;-79
2021/10/23 10:16:26;;;;;;;2.37;1.30;;;;;;;12.81;49.61;100402.66;5130668;22;20212;-80
2021/10/23 10:19:11;;;;;;;3.30;1.83;;;;;;;12.93;47.49;100400.94;5112432;22;20320;-80
2021/10/23 10:22:10;;;;;;;2.03;1.23;;;;;;;13.22;47.74;100408.44;4576103;23;15075756;-80
2021/10/23 10:25:35;;;;;;;3.47;1.57;;;;;;;13.83;46.02;100399.66;5188801;22;20145;-80
2021/10/23 10:28:30;;;;;;;4.10;1.60;;;;;;;14.12;45.63;100408.88;5106849;23;20218;-80
2021/10/23 10:31:26;;;;;;;3.23;1.63;;;;;;;14.01;45.67;100393.44;5115166;22;20220;-80
2021/10/23 10:34:59;;;;;;;2.70;1.57;;;;;;;13.92;45.29;100395.59;5123798;22;20211;-80
2021/10/23 10:44:29;;;;;;;2.13;1.30;;;;;;;14.11;44.47;100399.97;5112804;23;20682;-80
2021/10/23 10:47:27;;;;;;;2.33;1.50;;;;;;;13.96;44.56;100401.38;5083790;28;20200;-80
2021/10/23 10:50:57;;;;;;;1.63;1.30;;;;;;;13.96;45.21;100401.38;5121133;22;20221;-79
2021/10/23 10:53:52;;;;;;;2.60;1.30;;;;;;;14.09;45.28;100402.06;5136672;28;20187;-80
2021/10/23 10:56:22;;;;;;;3.93;1.90;;;;;;;13.96;45.04;100398.69;5210034;22;20223;-80
2021/10/23 10:59:03;;;;;;;2.27;1.40;;;;;;;13.84;45.76;100385.13;5101804;23;20212;-79
2021/10/23 11:02:26;;;;;;;4.20;1.50;;;;;;;13.96;44.82;100402.19;5110333;23;20212;-80
2021/10/23 11:05:30;;;;;;;2.73;1.60;;;;;;;14.21;43.91;100395.94;5124123;22;20274;-79
2021/10/23 11:08:33;;;;;;;2.23;1.50;;;;;;;13.90;45.17;100400.41;5121016;22;20216;-79
2021/10/23 11:11:09;;;;;;;2.47;1.30;;;;;;;13.74;45.54;100389.38;5114785;22;20254;-79
2021/10/23 11:13:50;;;;;;;1.77;1.37;;;;;;;13.73;45.68;100382.34;5094909;23;20560;-79
2021/10/23 11:16:57;;;;;;;2.80;1.73;;;;;;;13.13;46.14;100392.78;5116515;22;20233;-79
2021/10/23 11:20:07;;;;;;;2.83;1.43;;;;;;;13.15;45.55;100396.09;5129737;22;20241;-80
2021/10/23 11:23:15;;;;;;;2.40;1.30;;;;;;;12.74;47.13;100396.47;5110657;22;20284;-79
2021/10/23 11:26:25;;;;;;;1.60;1.20;;;;;;;12.62;46.83;100399.03;5092940;23;20257;-79
2021/10/23 11:32:36;;;;;;;1.70;1.20;;;;;;;12.56;47.21;100407.13;5101098;23;20212;-80
2021/10/23 11:35:18;;;;;;;1.70;1.17;;;;;;;12.66;46.34;100394.06;5049406;23;20215;-79
2021/10/23 11:38:20;;;;;;;1.50;1.07;;;;;;;12.72;45.78;100385.13;5090600;23;20229;-79
2021/10/23 11:41:10;;;;;;;1.93;1.00;;;;;;;13.03;45.27;100385.16;5109576;22;20230;-79
2021/10/23 11:44:05;;;;;;;1.23;0.73;;;;;;;13.41;44.73;100386.97;5108378;23;20221;-80
2021/10/23 11:46:55;;;;;;;2.83;1.07;;;;;;;13.58;44.08;100394.28;5076574;28;20254;-79
2021/10/23 11:49:45;;;;;;;1.87;0.80;;;;;;;13.61;44.64;100384.94;5096588;28;20189;-80
2021/10/23 11:52:19;;;;;;;0.87;0.80;;;;;;;13.59;43.71;100387.84;5111439;22;20234;-81
2021/10/23 11:55:31;;;;;;;1.33;0.80;;;;;;;13.82;43.40;100389.91;5101142;22;20273;-79
2021/10/23 11:58:42;;;;;;;1.20;0.77;;;;;;;14.06;42.76;100397.13;5123500;22;20204;-80
2021/10/23 12:01:37;;;;;;;1.33;0.90;;;;;;;14.48;42.32;100400.81;5088774;23;20224;-79
2021/10/23 12:04:08;;;;;;;1.13;0.90;;;;;;;14.81;41.41;100400.38;5121620;22;20230;-80
2021/10/23 12:06:59;;;;;;;1.63;1.20;;;;;;;15.10;41.59;100392.50;5127020;22;20215;-79
2021/10/23 12:09:35;;;;;;;1.60;0.90;;;;;;;15.54;41.48;100397.44;5150901;22;20222;-79
2021/10/23 12:16:06;;;;;;;1.47;0.93;;;;;;;15.90;40.21;100391.00;5116494;22;20263;-80
2021/10/23 12:18:35;;;;;;;1.73;1.10;;;;;;;16.27;39.37;100369.91;5114579;23;20211;-81
2021/10/23 12:21:14;;;;;;;1.30;1.00;;;;;;;16.47;38.81;100386.53;5077881;28;20228;-84
2021/10/23 12:23:53;;;;;;;2.27;1.20;;;;;;;16.21;39.65;100381.66;5103987;28;20512;-80
2021/10/23 12:26:30;;;;;;;1.20;1.10;;;;;;;16.33;39.61;100378.94;5083329;28;20240;-87
2021/10/23 12:29:09;;;;;;;2.70;1.07;;;;;;;15.79;40.55;100371.03;5081204;28;20237;-88
2021/10/23 12:32:02;;;;;;;1.10;0.93;;;;;;;15.93;41.00;100379.72;5084861;28;20241;-89
2021/10/23 12:34:50;;;;;;;2.20;1.10;;;;;;;15.76;40.47;100378.78;5104071;28;20233;-83
2021/10/23 12:37:31;;;;;;;1.70;1.07;;;;;;;15.60;40.48;100369.50;5106709;28;20238;-82
2021/10/23 12:40:27;;;;;;;1.63;1.30;;;;;;;15.40;40.43;100375.19;5104177;22;20233;-79
2021/10/23 12:43:45;;;;;;;1.70;1.00;;;;;;;15.34;39.67;100368.03;5216456;22;20215;-79
2021/10/23 12:47:06;;;;;;;1.50;1.00;;;;;;;15.39;40.28;100370.88;5140453;22;20231;-79
2021/10/23 12:49:51;;;;;;;2.00;1.20;;;;;;;15.59;40.62;100367.84;5109582;22;20197;-80
2021/10/23 12:52:35;;;;;;;1.90;1.10;;;;;;;15.98;39.25;100389.81;5188509;22;20576;-81
2021/10/23 12:55:10;;;;;;;2.20;1.17;;;;;;;16.03;39.59;100385.34;5124401;23;20329;-85
2021/10/23 12:57:58;;;;;;;1.40;1.20;;;;;;;15.57;38.70;100358.34;5142174;22;20213;-79
2021/10/23 13:01:09;;;;;;;1.27;1.17;;;;;;;15.15;39.29;100381.84;5117890;22;20217;-79
2021/10/23 13:04:00;;;;;;;2.60;1.20;;;;;;;14.98;40.34;100395.97;5088526;22;20214;-80
2021/10/23 13:07:11;;;;;;;1.27;1.17;;;;;;;15.10;40.53;100390.63;5218492;22;20200;-80
2021/10/23 13:10:15;;;;;;;2.50;1.20;;;;;;;14.92;39.71;100372.63;5128327;22;20222;-79
2021/10/23 13:13:00;;;;;;;0.90;0.90;;;;;;;15.02;39.99;100387.44;5169127;22;20219;-79
2021/10/23 13:16:08;;;;;;;2.23;1.50;;;;;;;15.60;39.15;100380.28;5002876;28;20223;-80
2021/10/23 13:18:57;;;;;;;1.97;1.00;;;;;;;15.68;38.84;100373.72;5105193;22;20287;-81